sensor_id;sensor_type;location;lat;lon;timestamp;pressure;altitude;pressure_sealevel;temperature;humidity
68988;BME280;56038;46.080;11.116;2023-07-13T00:04:37;99554.41;;;22.78;88.03
68988;BME280;56038;46.080;11.116;2023-07-13T00:09:41;99453.41;;;22.96;87.70
68988;BME280;56038;46.080;11.116;2023-07-13T00:14:42;99301.59;;;22.07;90.65
68988;BME280;56038;46.080;11.116;2023-07-13T00:19:44;99279.78;;;21.43;98.18
68988;BME280;56038;46.080;11.116;2023-07-13T00:24:47;99359.97;;;20.95;100.00
68988;BME280;56038;46.080;11.116;2023-07-13T00:29:49;99301.78;;;21.85;96.11
68988;BME280;56038;46.080;11.116;2023-07-13T00:34:50;99182.25;;;22.70;90.19
68988;BME280;56038;46.080;11.116;2023-07-13T00:39:54;99133.19;;;22.92;88.96
68988;BME280;56038;46.080;11.116;2023-07-13T00:45:04;99168.69;;;22.54;91.97
68988;BME280;56038;46.080;11.116;2023-07-13T00:50:13;99196.59;;;22.50;91.92
68988;BME280;56038;46.080;11.116;2023-07-13T00:55:17;99194.59;;;22.91;89.56
68988;BME280;56038;46.080;11.116;2023-07-13T01:00:20;99139.66;;;22.70;89.90
68988;BME280;56038;46.080;11.116;2023-07-13T01:05:26;99139.50;;;22.82;89.36
68988;BME280;56038;46.080;11.116;2023-07-13T01:10:34;99135.44;;;23.24;87.78
68988;BME280;56038;46.080;11.116;2023-07-13T01:15:41;99143.84;;;23.57;86.26
68988;BME280;56038;46.080;11.116;2023-07-13T01:20:51;99148.81;;;23.42;87.29
68988;BME280;56038;46.080;11.116;2023-07-13T01:25:54;99150.97;;;23.29;87.88
68988;BME280;56038;46.080;11.116;2023-07-13T01:30:58;99148.56;;;23.63;86.65
68988;BME280;56038;46.080;11.116;2023-07-13T01:36:01;99153.03;;;23.72;86.11
68988;BME280;56038;46.080;11.116;2023-07-13T01:41:03;99151.41;;;23.79;85.48
68988;BME280;56038;46.080;11.116;2023-07-13T01:46:05;99148.22;;;23.76;86.12
68988;BME280;56038;46.080;11.116;2023-07-13T01:51:08;99155.81;;;23.43;87.27
68988;BME280;56038;46.080;11.116;2023-07-13T01:56:12;99164.28;;;23.66;86.12
68988;BME280;56038;46.080;11.116;2023-07-13T02:01:14;99160.88;;;23.74;85.63
68988;BME280;56038;46.080;11.116;2023-07-13T02:06:17;99160.03;;;23.73;85.08
68988;BME280;56038;46.080;11.116;2023-07-13T02:11:18;99150.50;;;23.71;85.31
68988;BME280;56038;46.080;11.116;2023-07-13T02:16:20;99165.38;;;23.73;85.40
68988;BME280;56038;46.080;11.116;2023-07-13T02:21:23;99174.44;;;23.53;86.32
68988;BME280;56038;46.080;11.116;2023-07-13T02:26:25;99174.56;;;23.61;86.12
68988;BME280;56038;46.080;11.116;2023-07-13T02:31:27;99171.22;;;23.59;86.08
68988;BME280;56038;46.080;11.116;2023-07-13T02:36:30;99178.91;;;23.62;85.77
68988;BME280;56038;46.080;11.116;2023-07-13T02:41:32;99192.22;;;23.62;86.04
68988;BME280;56038;46.080;11.116;2023-07-13T02:46:36;99210.31;;;22.84;89.78
68988;BME280;56038;46.080;11.116;2023-07-13T02:51:39;99204.47;;;23.18;88.43
68988;BME280;56038;46.080;11.116;2023-07-13T02:56:41;99209.97;;;23.44;87.37
68988;BME280;56038;46.080;11.116;2023-07-13T03:01:43;99212.47;;;23.55;86.57
68988;BME280;56038;46.080;11.116;2023-07-13T03:06:46;99214.84;;;23.58;86.56
68988;BME280;56038;46.080;11.116;2023-07-13T03:11:48;99222.41;;;23.63;86.30
68988;BME280;56038;46.080;11.116;2023-07-13T03:16:50;99217.09;;;23.53;86.56
68988;BME280;56038;46.080;11.116;2023-07-13T03:21:53;99222.47;;;23.43;87.12
68988;BME280;56038;46.080;11.116;2023-07-13T03:26:55;99226.28;;;23.41;87.53
68988;BME280;56038;46.080;11.116;2023-07-13T03:31:57;99222.72;;;23.50;86.99
68988;BME280;56038;46.080;11.116;2023-07-13T03:37:00;99231.97;;;23.55;86.66
68988;BME280;56038;46.080;11.116;2023-07-13T03:42:02;99236.84;;;23.70;86.26
68988;BME280;56038;46.080;11.116;2023-07-13T03:47:04;99234.31;;;23.68;86.50
68988;BME280;56038;46.080;11.116;2023-07-13T03:52:10;99243.59;;;23.64;86.64
68988;BME280;56038;46.080;11.116;2023-07-13T03:57:12;99243.63;;;23.54;86.95
68988;BME280;56038;46.080;11.116;2023-07-13T04:02:14;99253.00;;;23.68;86.41
68988;BME280;56038;46.080;11.116;2023-07-13T04:07:17;99257.91;;;23.63;86.10
68988;BME280;56038;46.080;11.116;2023-07-13T04:12:19;99256.38;;;23.51;86.74
68988;BME280;56038;46.080;11.116;2023-07-13T04:17:21;99246.84;;;23.58;86.44
68988;BME280;56038;46.080;11.116;2023-07-13T04:22:24;99249.66;;;23.56;86.41
68988;BME280;56038;46.080;11.116;2023-07-13T04:27:25;99240.69;;;23.57;86.74
68988;BME280;56038;46.080;11.116;2023-07-13T04:32:29;99242.97;;;23.43;86.89
68988;BME280;56038;46.080;11.116;2023-07-13T04:37:32;99252.00;;;23.22;87.75
68988;BME280;56038;46.080;11.116;2023-07-13T04:42:33;99255.06;;;23.27;87.77
68988;BME280;56038;46.080;11.116;2023-07-13T04:47:35;99244.84;;;23.23;87.55
68988;BME280;56038;46.080;11.116;2023-07-13T04:52:39;99251.50;;;23.09;88.00
68988;BME280;56038;46.080;11.116;2023-07-13T04:57:40;99276.66;;;23.34;86.96
68988;BME280;56038;46.080;11.116;2023-07-13T05:02:43;99249.81;;;23.08;87.81
68988;BME280;56038;46.080;11.116;2023-07-13T05:07:47;99284.25;;;23.19;87.31
68988;BME280;56038;46.080;11.116;2023-07-13T05:12:48;99292.38;;;23.27;86.62
68988;BME280;56038;46.080;11.116;2023-07-13T05:17:51;99282.34;;;23.49;85.31
68988;BME280;56038;46.080;11.116;2023-07-13T05:22:54;99294.31;;;23.45;85.74
68988;BME280;56038;46.080;11.116;2023-07-13T05:27:55;99307.09;;;23.41;85.84
68988;BME280;56038;46.080;11.116;2023-07-13T05:32:57;99304.94;;;23.54;85.65
68988;BME280;56038;46.080;11.116;2023-07-13T05:38:00;99279.53;;;23.50;85.50
68988;BME280;56038;46.080;11.116;2023-07-13T05:43:02;99267.81;;;23.34;86.44
68988;BME280;56038;46.080;11.116;2023-07-13T05:48:04;99264.28;;;23.43;86.03
68988;BME280;56038;46.080;11.116;2023-07-13T05:53:07;99267.47;;;23.56;86.03
68988;BME280;56038;46.080;11.116;2023-07-13T05:58:10;99292.94;;;23.78;84.70
68988;BME280;56038;46.080;11.116;2023-07-13T06:03:13;99288.75;;;24.03;83.61
68988;BME280;56038;46.080;11.116;2023-07-13T06:08:16;99261.63;;;23.80;84.48
68988;BME280;56038;46.080;11.116;2023-07-13T06:13:18;99276.88;;;23.60;85.10
68988;BME280;56038;46.080;11.116;2023-07-13T06:18:19;99263.06;;;23.74;84.38
68988;BME280;56038;46.080;11.116;2023-07-13T06:23:23;99240.34;;;23.70;83.63
68988;BME280;56038;46.080;11.116;2023-07-13T06:28:24;99271.66;;;23.96;82.45
68988;BME280;56038;46.080;11.116;2023-07-13T06:33:27;99253.44;;;24.09;81.57
68988;BME280;56038;46.080;11.116;2023-07-13T06:38:30;99262.97;;;24.11;82.07
68988;BME280;56038;46.080;11.116;2023-07-13T06:43:32;99252.72;;;24.16;81.69
68988;BME280;56038;46.080;11.116;2023-07-13T06:48:34;99265.81;;;23.82;82.24
68988;BME280;56038;46.080;11.116;2023-07-13T06:53:37;99273.81;;;23.82;82.34
68988;BME280;56038;46.080;11.116;2023-07-13T06:58:39;99280.34;;;23.98;81.84
68988;BME280;56038;46.080;11.116;2023-07-13T07:03:40;99299.25;;;23.86;82.51
68988;BME280;56038;46.080;11.116;2023-07-13T07:08:43;99291.91;;;23.88;82.18
68988;BME280;56038;46.080;11.116;2023-07-13T07:13:46;99301.41;;;24.01;82.01
68988;BME280;56038;46.080;11.116;2023-07-13T07:18:48;99315.91;;;23.61;82.63
68988;BME280;56038;46.080;11.116;2023-07-13T07:23:51;99318.75;;;23.40;83.45
68988;BME280;56038;46.080;11.116;2023-07-13T07:28:53;99326.06;;;23.28;83.59
68988;BME280;56038;46.080;11.116;2023-07-13T07:33:55;99324.97;;;23.02;84.40
68988;BME280;56038;46.080;11.116;2023-07-13T07:38:58;99327.34;;;22.76;85.48
68988;BME280;56038;46.080;11.116;2023-07-13T07:44:00;99326.78;;;22.63;85.89
68988;BME280;56038;46.080;11.116;2023-07-13T07:49:02;99351.16;;;22.58;86.71
68988;BME280;56038;46.080;11.116;2023-07-13T07:54:05;99358.28;;;22.08;90.51
68988;BME280;56038;46.080;11.116;2023-07-13T07:59:07;99339.06;;;22.04;91.69
68988;BME280;56038;46.080;11.116;2023-07-13T08:04:09;99340.78;;;22.05;91.81
68988;BME280;56038;46.080;11.116;2023-07-13T08:09:12;99331.50;;;22.40;90.26
68988;BME280;56038;46.080;11.116;2023-07-13T08:14:15;99314.88;;;22.77;88.48
68988;BME280;56038;46.080;11.116;2023-07-13T08:19:17;99322.31;;;22.83;88.65
68988;BME280;56038;46.080;11.116;2023-07-13T08:24:21;99294.81;;;23.01;87.63
68988;BME280;56038;46.080;11.116;2023-07-13T08:29:23;99296.59;;;23.30;87.34
68988;BME280;56038;46.080;11.116;2023-07-13T08:34:25;99290.50;;;23.57;84.64
68988;BME280;56038;46.080;11.116;2023-07-13T08:39:29;99281.19;;;23.71;83.48
68988;BME280;56038;46.080;11.116;2023-07-13T08:44:40;99282.59;;;24.02;81.77
68988;BME280;56038;46.080;11.116;2023-07-13T08:49:45;99272.09;;;24.18;81.22
68988;BME280;56038;46.080;11.116;2023-07-13T08:54:50;99274.50;;;24.39;80.61
68988;BME280;56038;46.080;11.116;2023-07-13T08:59:52;99251.59;;;24.55;80.00
68988;BME280;56038;46.080;11.116;2023-07-13T09:04:58;99260.41;;;24.47;78.92
68988;BME280;56038;46.080;11.116;2023-07-13T09:10:12;99283.34;;;24.58;78.01
68988;BME280;56038;46.080;11.116;2023-07-13T09:15:23;99285.25;;;24.65;77.81
68988;BME280;56038;46.080;11.116;2023-07-13T09:20:29;99273.56;;;25.02;76.73
68988;BME280;56038;46.080;11.116;2023-07-13T09:25:36;99291.97;;;25.31;75.78
68988;BME280;56038;46.080;11.116;2023-07-13T09:30:50;99284.38;;;25.44;74.73
68988;BME280;56038;46.080;11.116;2023-07-13T09:35:53;99275.38;;;25.53;73.94
68988;BME280;56038;46.080;11.116;2023-07-13T09:41:07;99279.94;;;25.61;72.55
68988;BME280;56038;46.080;11.116;2023-07-13T09:46:20;99285.13;;;25.62;73.11
68988;BME280;56038;46.080;11.116;2023-07-13T09:51:23;99283.25;;;25.81;72.57
68988;BME280;56038;46.080;11.116;2023-07-13T09:56:28;99270.47;;;26.09;71.34
68988;BME280;56038;46.080;11.116;2023-07-13T10:01:32;99255.16;;;26.35;70.36
68988;BME280;56038;46.080;11.116;2023-07-13T10:11:52;99234.75;;;26.75;67.92
68988;BME280;56038;46.080;11.116;2023-07-13T10:16:59;99220.16;;;26.94;66.42
68988;BME280;56038;46.080;11.116;2023-07-13T10:22:12;99219.16;;;27.19;63.28
68988;BME280;56038;46.080;11.116;2023-07-13T10:27:18;99210.66;;;26.83;65.77
68988;BME280;56038;46.080;11.116;2023-07-13T10:32:22;99210.78;;;27.06;65.85
68988;BME280;56038;46.080;11.116;2023-07-13T10:37:27;99223.97;;;27.32;64.42
68988;BME280;56038;46.080;11.116;2023-07-13T10:42:35;99225.75;;;27.64;63.65
68988;BME280;56038;46.080;11.116;2023-07-13T10:47:39;99223.72;;;27.97;63.05
68988;BME280;56038;46.080;11.116;2023-07-13T10:52:42;99213.38;;;28.17;62.79
68988;BME280;56038;46.080;11.116;2023-07-13T10:57:48;99208.94;;;28.32;61.81
68988;BME280;56038;46.080;11.116;2023-07-13T11:02:56;99195.41;;;28.40;60.08
68988;BME280;56038;46.080;11.116;2023-07-13T11:08:13;99188.19;;;29.01;58.81
68988;BME280;56038;46.080;11.116;2023-07-13T11:13:58;99173.38;;;29.20;55.27
68988;BME280;56038;46.080;11.116;2023-07-13T11:19:26;99159.50;;;29.67;54.55
68988;BME280;56038;46.080;11.116;2023-07-13T11:24:48;99153.03;;;29.47;54.24
68988;BME280;56038;46.080;11.116;2023-07-13T11:29:51;99127.69;;;29.56;55.41
68988;BME280;56038;46.080;11.116;2023-07-13T11:34:54;99120.91;;;29.81;56.57
68988;BME280;56038;46.080;11.116;2023-07-13T11:39:56;99127.94;;;30.40;55.03
68988;BME280;56038;46.080;11.116;2023-07-13T11:44:59;99107.06;;;30.49;54.45
68988;BME280;56038;46.080;11.116;2023-07-13T11:50:01;99112.41;;;30.98;53.19
68988;BME280;56038;46.080;11.116;2023-07-13T11:55:13;99117.03;;;30.76;53.13
68988;BME280;56038;46.080;11.116;2023-07-13T12:00:20;99096.69;;;30.24;53.73
68988;BME280;56038;46.080;11.116;2023-07-13T12:05:26;99098.81;;;29.86;55.32
68988;BME280;56038;46.080;11.116;2023-07-13T12:10:32;99089.81;;;29.43;56.19
68988;BME280;56038;46.080;11.116;2023-07-13T12:15:38;99117.78;;;28.98;56.41
68988;BME280;56038;46.080;11.116;2023-07-13T12:20:40;99115.69;;;28.41;58.83
68988;BME280;56038;46.080;11.116;2023-07-13T12:25:42;99104.50;;;27.83;60.56
68988;BME280;56038;46.080;11.116;2023-07-13T12:30:48;99084.69;;;27.30;61.57
68988;BME280;56038;46.080;11.116;2023-07-13T12:41:01;99085.81;;;26.80;64.03
68988;BME280;56038;46.080;11.116;2023-07-13T12:46:17;99104.00;;;26.46;66.18
68988;BME280;56038;46.080;11.116;2023-07-13T12:51:21;99098.13;;;26.10;66.91
68988;BME280;56038;46.080;11.116;2023-07-13T12:56:26;99088.22;;;25.86;67.60
68988;BME280;56038;46.080;11.116;2023-07-13T13:01:34;99100.34;;;25.56;68.18
68988;BME280;56038;46.080;11.116;2023-07-13T13:06:38;99087.75;;;25.32;68.88
68988;BME280;56038;46.080;11.116;2023-07-13T13:11:42;99112.41;;;25.10;69.52
68988;BME280;56038;46.080;11.116;2023-07-13T13:16:47;99125.28;;;24.88;70.51
68988;BME280;56038;46.080;11.116;2023-07-13T13:21:53;99151.88;;;24.64;71.72
68988;BME280;56038;46.080;11.116;2023-07-13T13:26:57;99146.00;;;24.42;72.53
68988;BME280;56038;46.080;11.116;2023-07-13T13:32:00;99159.63;;;24.31;73.67
68988;BME280;56038;46.080;11.116;2023-07-13T13:37:02;99183.84;;;24.20;74.03
68988;BME280;56038;46.080;11.116;2023-07-13T13:42:04;99194.84;;;24.17;74.75
68988;BME280;56038;46.080;11.116;2023-07-13T13:47:29;99188.56;;;24.26;75.65
68988;BME280;56038;46.080;11.116;2023-07-13T13:52:32;99215.22;;;24.36;74.65
68988;BME280;56038;46.080;11.116;2023-07-13T13:57:34;99225.44;;;24.40;74.90
68988;BME280;56038;46.080;11.116;2023-07-13T14:02:37;99229.47;;;24.44;74.51
68988;BME280;56038;46.080;11.116;2023-07-13T14:07:38;99238.78;;;24.40;74.34
68988;BME280;56038;46.080;11.116;2023-07-13T14:12:41;99234.38;;;24.31;74.94
68988;BME280;56038;46.080;11.116;2023-07-13T14:17:46;99266.44;;;24.22;78.61
68988;BME280;56038;46.080;11.116;2023-07-13T14:22:50;99292.34;;;24.11;76.15
68988;BME280;56038;46.080;11.116;2023-07-13T14:27:58;99294.94;;;24.03;77.12
68988;BME280;56038;46.080;11.116;2023-07-13T14:33:06;99307.47;;;23.93;78.29
68988;BME280;56038;46.080;11.116;2023-07-13T14:38:11;99315.97;;;23.79;79.52
68988;BME280;56038;46.080;11.116;2023-07-13T14:43:15;99298.34;;;23.68;80.08
68988;BME280;56038;46.080;11.116;2023-07-13T14:48:22;99311.53;;;23.50;82.69
68988;BME280;56038;46.080;11.116;2023-07-13T14:53:26;99313.16;;;23.24;83.95
68988;BME280;56038;46.080;11.116;2023-07-13T14:58:28;99304.72;;;23.28;83.87
68988;BME280;56038;46.080;11.116;2023-07-13T15:03:31;99323.78;;;23.34;84.09
68988;BME280;56038;46.080;11.116;2023-07-13T15:08:33;99327.03;;;23.27;84.50
68988;BME280;56038;46.080;11.116;2023-07-13T15:13:35;99329.72;;;23.18;85.41
68988;BME280;56038;46.080;11.116;2023-07-13T15:18:39;99310.81;;;23.01;89.84
68988;BME280;56038;46.080;11.116;2023-07-13T15:23:41;99301.84;;;22.74;94.46
68988;BME280;56038;46.080;11.116;2023-07-13T15:28:43;99290.56;;;23.38;88.86
68988;BME280;56038;46.080;11.116;2023-07-13T15:33:46;99260.19;;;23.58;91.20
68988;BME280;56038;46.080;11.116;2023-07-13T15:38:52;99259.41;;;24.30;88.42
68988;BME280;56038;46.080;11.116;2023-07-13T15:43:54;99246.00;;;24.84;87.34
68988;BME280;56038;46.080;11.116;2023-07-13T15:48:59;99242.00;;;25.57;81.87
68988;BME280;56038;46.080;11.116;2023-07-13T15:54:03;99235.38;;;26.20;79.27
68988;BME280;56038;46.080;11.116;2023-07-13T15:59:06;99243.28;;;25.87;79.03
68988;BME280;56038;46.080;11.116;2023-07-13T16:04:13;99231.31;;;26.08;78.10
68988;BME280;56038;46.080;11.116;2023-07-13T16:09:20;99226.47;;;26.19;77.32
68988;BME280;56038;46.080;11.116;2023-07-13T16:14:23;99223.19;;;26.42;76.43
68988;BME280;56038;46.080;11.116;2023-07-13T16:19:27;99231.59;;;26.71;75.77
68988;BME280;56038;46.080;11.116;2023-07-13T16:24:30;99226.88;;;26.90;75.06
68988;BME280;56038;46.080;11.116;2023-07-13T16:29:32;99227.38;;;26.77;75.12
68988;BME280;56038;46.080;11.116;2023-07-13T16:34:37;99218.00;;;26.81;74.74
68988;BME280;56038;46.080;11.116;2023-07-13T16:39:43;99225.19;;;26.64;74.89
68988;BME280;56038;46.080;11.116;2023-07-13T16:44:46;99219.78;;;26.07;75.83
68988;BME280;56038;46.080;11.116;2023-07-13T16:49:49;99224.50;;;25.71;77.62
68988;BME280;56038;46.080;11.116;2023-07-13T16:54:52;99224.56;;;25.19;80.07
68988;BME280;56038;46.080;11.116;2023-07-13T16:59:53;99214.69;;;25.20;79.98
68988;BME280;56038;46.080;11.116;2023-07-13T17:04:58;99226.88;;;25.14;79.57
68988;BME280;56038;46.080;11.116;2023-07-13T17:10:01;99223.75;;;24.57;83.55
68988;BME280;56038;46.080;11.116;2023-07-13T17:15:03;99223.72;;;24.31;86.09
68988;BME280;56038;46.080;11.116;2023-07-13T17:20:20;99222.09;;;24.38;83.82
68988;BME280;56038;46.080;11.116;2023-07-13T17:25:24;99217.88;;;24.54;84.16
68988;BME280;56038;46.080;11.116;2023-07-13T17:30:26;99214.66;;;24.68;83.60
68988;BME280;56038;46.080;11.116;2023-07-13T17:35:30;99208.19;;;24.53;84.02
68988;BME280;56038;46.080;11.116;2023-07-13T17:40:34;99203.56;;;24.37;84.18
68988;BME280;56038;46.080;11.116;2023-07-13T17:45:35;99215.09;;;24.28;84.01
68988;BME280;56038;46.080;11.116;2023-07-13T17:50:39;99214.78;;;24.13;84.07
68988;BME280;56038;46.080;11.116;2023-07-13T17:55:44;99221.25;;;23.93;84.88
68988;BME280;56038;46.080;11.116;2023-07-13T18:00:48;99225.34;;;23.69;85.84
68988;BME280;56038;46.080;11.116;2023-07-13T18:05:52;99220.66;;;23.34;88.22
68988;BME280;56038;46.080;11.116;2023-07-13T18:10:55;99220.81;;;22.86;91.02
68988;BME280;56038;46.080;11.116;2023-07-13T18:15:57;99223.47;;;22.86;89.79
68988;BME280;56038;46.080;11.116;2023-07-13T18:21:01;99226.56;;;22.52;93.92
68988;BME280;56038;46.080;11.116;2023-07-13T18:26:04;99226.72;;;22.60;91.58
68988;BME280;56038;46.080;11.116;2023-07-13T18:31:12;99229.34;;;22.80;90.67
68988;BME280;56038;46.080;11.116;2023-07-13T18:36:16;99244.25;;;22.82;89.79
68988;BME280;56038;46.080;11.116;2023-07-13T18:41:20;99253.91;;;22.93;89.11
68988;BME280;56038;46.080;11.116;2023-07-13T18:46:25;99260.22;;;22.92;89.04
68988;BME280;56038;46.080;11.116;2023-07-13T18:51:30;99261.88;;;22.74;90.43
68988;BME280;56038;46.080;11.116;2023-07-13T18:56:31;99279.63;;;22.25;95.07
68988;BME280;56038;46.080;11.116;2023-07-13T19:01:35;99296.63;;;22.33;93.68
68988;BME280;56038;46.080;11.116;2023-07-13T19:06:39;99307.97;;;22.45;92.83
68988;BME280;56038;46.080;11.116;2023-07-13T19:11:40;99316.38;;;22.31;94.03
68988;BME280;56038;46.080;11.116;2023-07-13T19:16:42;99326.59;;;22.35;93.06
68988;BME280;56038;46.080;11.116;2023-07-13T19:21:47;99338.53;;;22.70;91.54
68988;BME280;56038;46.080;11.116;2023-07-13T19:26:50;99352.00;;;22.78;90.52
68988;BME280;56038;46.080;11.116;2023-07-13T19:31:53;99365.50;;;22.96;89.35
68988;BME280;56038;46.080;11.116;2023-07-13T19:36:59;99375.75;;;22.91;88.99
68988;BME280;56038;46.080;11.116;2023-07-13T19:42:05;99396.22;;;23.10;88.32
68988;BME280;56038;46.080;11.116;2023-07-13T19:47:11;99406.84;;;23.19;87.33
68988;BME280;56038;46.080;11.116;2023-07-13T19:52:16;99426.78;;;23.25;87.11
68988;BME280;56038;46.080;11.116;2023-07-13T19:57:20;99428.75;;;22.94;87.58
68988;BME280;56038;46.080;11.116;2023-07-13T20:02:24;99433.94;;;22.46;90.16
68988;BME280;56038;46.080;11.116;2023-07-13T20:07:28;99433.13;;;22.64;89.49
68988;BME280;56038;46.080;11.116;2023-07-13T20:12:33;99434.28;;;22.81;88.14
68988;BME280;56038;46.080;11.116;2023-07-13T20:17:36;99449.53;;;22.69;87.35
68988;BME280;56038;46.080;11.116;2023-07-13T20:22:40;99450.75;;;22.46;88.71
68988;BME280;56038;46.080;11.116;2023-07-13T20:27:42;99450.25;;;22.71;87.48
68988;BME280;56038;46.080;11.116;2023-07-13T20:32:44;99455.31;;;22.75;86.87
68988;BME280;56038;46.080;11.116;2023-07-13T20:37:48;99454.47;;;22.74;86.87
68988;BME280;56038;46.080;11.116;2023-07-13T20:42:50;99453.66;;;22.83;86.38
68988;BME280;56038;46.080;11.116;2023-07-13T20:47:54;99461.00;;;22.91;86.41
68988;BME280;56038;46.080;11.116;2023-07-13T20:52:58;99471.72;;;22.80;86.86
68988;BME280;56038;46.080;11.116;2023-07-13T20:58:00;99484.75;;;22.73;87.14
68988;BME280;56038;46.080;11.116;2023-07-13T21:03:06;99493.78;;;22.51;87.92
68988;BME280;56038;46.080;11.116;2023-07-13T21:08:11;99498.88;;;22.64;87.53
68988;BME280;56038;46.080;11.116;2023-07-13T21:13:15;99498.63;;;22.77;86.59
68988;BME280;56038;46.080;11.116;2023-07-13T21:18:18;99501.28;;;22.77;86.91
68988;BME280;56038;46.080;11.116;2023-07-13T21:23:27;99504.53;;;22.80;86.93
68988;BME280;56038;46.080;11.116;2023-07-13T21:28:34;99512.22;;;22.13;89.75
68988;BME280;56038;46.080;11.116;2023-07-13T21:33:36;99518.34;;;21.92;91.29
68988;BME280;56038;46.080;11.116;2023-07-13T21:38:40;99521.72;;;22.36;89.25
68988;BME280;56038;46.080;11.116;2023-07-13T21:43:42;99521.09;;;22.53;87.85
68988;BME280;56038;46.080;11.116;2023-07-13T21:48:44;99524.50;;;22.65;87.27
68988;BME280;56038;46.080;11.116;2023-07-13T21:53:47;99520.03;;;22.65;86.88
68988;BME280;56038;46.080;11.116;2023-07-13T21:58:50;99530.69;;;22.65;86.94
68988;BME280;56038;46.080;11.116;2023-07-13T22:03:55;99536.56;;;22.69;86.82
68988;BME280;56038;46.080;11.116;2023-07-13T22:08:58;99535.72;;;22.68;86.60
68988;BME280;56038;46.080;11.116;2023-07-13T22:14:00;99536.97;;;22.64;86.51
68988;BME280;56038;46.080;11.116;2023-07-13T22:19:09;99536.97;;;22.64;86.54
68988;BME280;56038;46.080;11.116;2023-07-13T22:24:16;99536.28;;;22.62;86.73
68988;BME280;56038;46.080;11.116;2023-07-13T22:29:19;99547.63;;;22.64;86.69
68988;BME280;56038;46.080;11.116;2023-07-13T22:34:24;99547.38;;;22.67;86.61
68988;BME280;56038;46.080;11.116;2023-07-13T22:39:30;99550.72;;;22.60;87.43
68988;BME280;56038;46.080;11.116;2023-07-13T22:44:32;99550.84;;;22.58;87.65
68988;BME280;56038;46.080;11.116;2023-07-13T22:49:34;99551.13;;;22.65;87.44
68988;BME280;56038;46.080;11.116;2023-07-13T22:54:38;99549.75;;;22.70;87.36
68988;BME280;56038;46.080;11.116;2023-07-13T22:59:41;99556.59;;;22.63;87.73
68988;BME280;56038;46.080;11.116;2023-07-13T23:04:43;99563.00;;;22.51;88.11
68988;BME280;56038;46.080;11.116;2023-07-13T23:09:50;99557.22;;;22.46;88.29
68988;BME280;56038;46.080;11.116;2023-07-13T23:14:52;99558.56;;;22.40;88.45
68988;BME280;56038;46.080;11.116;2023-07-13T23:19:54;99553.53;;;22.37;88.25
68988;BME280;56038;46.080;11.116;2023-07-13T23:24:57;99556.91;;;22.39;88.20
68988;BME280;56038;46.080;11.116;2023-07-13T23:29:59;99541.75;;;22.40;88.23
68988;BME280;56038;46.080;11.116;2023-07-13T23:35:00;99551.03;;;22.15;89.32
68988;BME280;56038;46.080;11.116;2023-07-13T23:40:11;99550.75;;;22.18;89.49
68988;BME280;56038;46.080;11.116;2023-07-13T23:45:15;99542.66;;;22.20;89.12
68988;BME280;56038;46.080;11.116;2023-07-13T23:50:20;99544.53;;;22.29;88.46
68988;BME280;56038;46.080;11.116;2023-07-13T23:55:26;99553.13;;;22.11;88.74
